< Typhoon 199436 1995 Season Typhoon 199502 >
Typhoon 199501 (CHUCK)
General InformationTrack Information on Google MapsDetailed Wind InformationList of All Images || Disaster Info.ResourceGoogle EarthGE AnimationAtom FeedGeoJSON
Detalied Best Track (Time Zone = UTC)
Year Month Day Hour Lat. Long. Pressure (hPa) Wind (kt) Class Image Chart
1995 4 27 18 5.2 166.2 1004 0 2 Image Chart
1995 4 28 00 5.5 166.3 1004 0 2 Image Chart
1995 4 28 06 6.5 166.5 1004 0 2 Image Chart
1995 4 28 12 7.0 166.5 1002 0 2 Image Chart
1995 4 28 18 7.3 166.2 1002 0 2 Image Chart
1995 4 29 00 7.4 165.5 1000 35 3 Image Chart
1995 4 29 06 7.3 164.5 998 35 3 Image Chart
1995 4 29 12 7.1 163.7 998 35 3 Image Chart
1995 4 29 18 6.9 162.9 998 35 3 Image Chart
1995 4 30 00 6.7 162.7 998 35 3 Image Chart
1995 4 30 06 6.6 162.6 998 35 3 Image Chart
1995 4 30 12 6.4 162.3 1000 35 3 Image Chart
1995 4 30 18 5.9 161.9 1000 35 3 Image Chart
1995 5 1 00 5.4 161.6 1002 0 2 Image Chart
1995 5 1 06 5.9 161.9 1002 0 2 Image Chart
1995 5 1 12 6.8 161.7 1004 0 2 Image Chart
1995 5 1 18 7.8 161.3 1004 0 2 Image Chart
1995 5 2 00 8.8 160.8 1004 0 2 Image Chart
1995 5 2 06 9.6 160.1 1004 0 2 Image Chart
1995 5 2 12 10.3 159.2 1006 0 2 Image Chart
1995 5 2 18 11.0 158.2 1006 0 2 Image Chart
1995 5 3 00 11.5 157.7 1006 0 2 Image Chart
1995 5 3 06 11.8 157.1 1006 0 2 Image Chart
1995 5 3 12 12.0 156.5 1006 0 2 Image Chart
1995 5 3 18 12.2 155.9 1006 0 2 Image Chart
1995 5 4 00 12.3 155.2 1008 0 2 Image Chart
Japan Meteorological Agency Best Track Data | Correction Date : 1996-01-19
< Typhoon 199436 1995 Season Typhoon 199502 >

Help